<?xml version="1.0" encoding="UTF-8" standalone="no" ?>
<gpx xmlns="http://www.topografix.com/GPX/1/1" xmlns:xsi="http://www.w3.org/2001/XMLSchema-instance" xsi:schemaLocation="http://www.topografix.com/GPX/1/1 http://www.topografix.com/GPX/1/1/gpx.xsd" version="1.1" creator="VisuGPX - https://www.visugpx.com">
  <metadata>
    <name>20120407</name>
    <desc><![CDATA[Promenade du samedi]]></desc>
  </metadata>
  <trk>
    <name><![CDATA[2012-04-07 16:11]]></name>
    <desc><![CDATA[<h1>OruxMaps</h1><br /><hr align="center" width="480" style="height: 2px; width: 517px"/><h2>Nom: 2012-04-07 16:11</h2><br /><p>Temps de départ: 04/07/2012 16:11</p><p>Temps d'arrivée: 04/07/2012 17:13</p><p>Distance: 5,9 km (01:02)</p><p>Temps déplacement: 01:01</p><p>Vitesse moyenne: 5,7 km/h</p><p>Vitesse moyenne: 5,8 km/h</p><p>Vitess Max.: 9,2 km/h</p><p>Altitude minimale: 247 m</p><p>Altitude maximale: 307 m</p><p>Vitesse d'élévation: 352,2 m/h</p><p>Vitesse de descente: -329,1 m/h</p><p>Gain Altitude: 155 m</p><p>Perte Altitude: -166 m</p><p>Temps d'élévation: 00:26</p><p>Temps de descente: 00:30</p><hr align="center" width="480" style="height: 2px; width: 517px"/>]]></desc>
    <trkseg>
      <trkpt lat="45.70101" lon="4.95311">
        <ele>288.10938</ele>
        <time>2012-04-07T14:11:13Z</time>
      </trkpt>
      <trkpt lat="45.70086" lon="4.95294">
        <ele>282.6908</ele>
        <time>2012-04-07T14:12:02Z</time>
      </trkpt>
      <trkpt lat="45.70072" lon="4.95275">
        <ele>280.42093</ele>
        <time>2012-04-07T14:12:18Z</time>
      </trkpt>
      <trkpt lat="45.70062" lon="4.95252">
        <ele>282.47922</ele>
        <time>2012-04-07T14:12:36Z</time>
      </trkpt>
      <trkpt lat="45.70053" lon="4.95228">
        <ele>281.87686</ele>
        <time>2012-04-07T14:12:52Z</time>
      </trkpt>
      <trkpt lat="45.70047" lon="4.95204">
        <ele>283.41272</ele>
        <time>2012-04-07T14:13:07Z</time>
      </trkpt>
      <trkpt lat="45.70039" lon="4.95179">
        <ele>282.84677</ele>
        <time>2012-04-07T14:13:18Z</time>
      </trkpt>
      <trkpt lat="45.70028" lon="4.95158">
        <ele>276.13748</ele>
        <time>2012-04-07T14:13:30Z</time>
      </trkpt>
      <trkpt lat="45.70018" lon="4.95136">
        <ele>272.7647</ele>
        <time>2012-04-07T14:13:43Z</time>
      </trkpt>
      <trkpt lat="45.70006" lon="4.95115">
        <ele>271.86703</ele>
        <time>2012-04-07T14:13:59Z</time>
      </trkpt>
      <trkpt lat="45.69994" lon="4.95096">
        <ele>272.24683</ele>
        <time>2012-04-07T14:14:12Z</time>
      </trkpt>
      <trkpt lat="45.69978" lon="4.95085">
        <ele>271.2244</ele>
        <time>2012-04-07T14:14:27Z</time>
      </trkpt>
      <trkpt lat="45.6996" lon="4.95088">
        <ele>272.40408</ele>
        <time>2012-04-07T14:14:46Z</time>
      </trkpt>
      <trkpt lat="45.69941" lon="4.95084">
        <ele>269.84494</ele>
        <time>2012-04-07T14:14:56Z</time>
      </trkpt>
      <trkpt lat="45.69922" lon="4.95085">
        <ele>268.81635</ele>
        <time>2012-04-07T14:15:06Z</time>
      </trkpt>
      <trkpt lat="45.69918" lon="4.95059">
        <ele>268.35535</ele>
        <time>2012-04-07T14:15:24Z</time>
      </trkpt>
      <trkpt lat="45.69918" lon="4.95031">
        <ele>271.88464</ele>
        <time>2012-04-07T14:15:38Z</time>
      </trkpt>
      <trkpt lat="45.69918" lon="4.95004">
        <ele>268.913</ele>
        <time>2012-04-07T14:15:53Z</time>
      </trkpt>
      <trkpt lat="45.69918" lon="4.94977">
        <ele>269.6172</ele>
        <time>2012-04-07T14:16:07Z</time>
      </trkpt>
      <trkpt lat="45.69922" lon="4.94952">
        <ele>268.57532</ele>
        <time>2012-04-07T14:16:20Z</time>
      </trkpt>
      <trkpt lat="45.69923" lon="4.94924">
        <ele>271.45633</ele>
        <time>2012-04-07T14:16:33Z</time>
      </trkpt>
      <trkpt lat="45.69919" lon="4.94898">
        <ele>270.82962</ele>
        <time>2012-04-07T14:16:47Z</time>
      </trkpt>
      <trkpt lat="45.69918" lon="4.94872">
        <ele>269.66348</ele>
        <time>2012-04-07T14:17:01Z</time>
      </trkpt>
      <trkpt lat="45.6992" lon="4.94845">
        <ele>270.96033</ele>
        <time>2012-04-07T14:17:14Z</time>
      </trkpt>
      <trkpt lat="45.69925" lon="4.94819">
        <ele>274.3006</ele>
        <time>2012-04-07T14:17:28Z</time>
      </trkpt>
      <trkpt lat="45.69929" lon="4.94794">
        <ele>278.172</ele>
        <time>2012-04-07T14:17:40Z</time>
      </trkpt>
      <trkpt lat="45.69931" lon="4.94767">
        <ele>277.2493</ele>
        <time>2012-04-07T14:17:53Z</time>
      </trkpt>
      <trkpt lat="45.69925" lon="4.94742">
        <ele>278.11737</ele>
        <time>2012-04-07T14:18:08Z</time>
      </trkpt>
      <trkpt lat="45.69926" lon="4.94716">
        <ele>276.86438</ele>
        <time>2012-04-07T14:18:20Z</time>
      </trkpt>
      <trkpt lat="45.69917" lon="4.94692">
        <ele>271.194</ele>
        <time>2012-04-07T14:18:37Z</time>
      </trkpt>
      <trkpt lat="45.69913" lon="4.94665">
        <ele>267.2291</ele>
        <time>2012-04-07T14:18:50Z</time>
      </trkpt>
      <trkpt lat="45.69904" lon="4.94642">
        <ele>267.7775</ele>
        <time>2012-04-07T14:19:02Z</time>
      </trkpt>
      <trkpt lat="45.69904" lon="4.94615">
        <ele>268.3955</ele>
        <time>2012-04-07T14:19:11Z</time>
      </trkpt>
      <trkpt lat="45.69891" lon="4.94597">
        <ele>269.6577</ele>
        <time>2012-04-07T14:19:25Z</time>
      </trkpt>
      <trkpt lat="45.69873" lon="4.9459">
        <ele>272.0172</ele>
        <time>2012-04-07T14:19:40Z</time>
      </trkpt>
      <trkpt lat="45.69855" lon="4.94581">
        <ele>273.98886</ele>
        <time>2012-04-07T14:19:51Z</time>
      </trkpt>
      <trkpt lat="45.69857" lon="4.94553">
        <ele>277.10626</ele>
        <time>2012-04-07T14:20:05Z</time>
      </trkpt>
      <trkpt lat="45.69858" lon="4.94526">
        <ele>279.07376</ele>
        <time>2012-04-07T14:20:20Z</time>
      </trkpt>
      <trkpt lat="45.69855" lon="4.945">
        <ele>277.08105</ele>
        <time>2012-04-07T14:20:35Z</time>
      </trkpt>
      <trkpt lat="45.69854" lon="4.94474">
        <ele>278.12918</ele>
        <time>2012-04-07T14:20:47Z</time>
      </trkpt>
      <trkpt lat="45.69862" lon="4.94448">
        <ele>279.714</ele>
        <time>2012-04-07T14:20:57Z</time>
      </trkpt>
      <trkpt lat="45.69868" lon="4.94423">
        <ele>282.47855</ele>
        <time>2012-04-07T14:21:09Z</time>
      </trkpt>
      <trkpt lat="45.69866" lon="4.94395">
        <ele>282.06616</ele>
        <time>2012-04-07T14:21:22Z</time>
      </trkpt>
      <trkpt lat="45.69865" lon="4.94369">
        <ele>269.87204</ele>
        <time>2012-04-07T14:21:41Z</time>
      </trkpt>
      <trkpt lat="45.69855" lon="4.94347">
        <ele>272.28763</ele>
        <time>2012-04-07T14:21:53Z</time>
      </trkpt>
      <trkpt lat="45.69876" lon="4.94335">
        <ele>277.74942</ele>
        <time>2012-04-07T14:22:35Z</time>
      </trkpt>
      <trkpt lat="45.6989" lon="4.94315">
        <ele>276.73804</ele>
        <time>2012-04-07T14:22:38Z</time>
      </trkpt>
      <trkpt lat="45.69906" lon="4.94301">
        <ele>275.44775</ele>
        <time>2012-04-07T14:22:44Z</time>
      </trkpt>
      <trkpt lat="45.69919" lon="4.9428">
        <ele>275.22598</ele>
        <time>2012-04-07T14:22:59Z</time>
      </trkpt>
      <trkpt lat="45.69904" lon="4.94264">
        <ele>274.86658</ele>
        <time>2012-04-07T14:23:12Z</time>
      </trkpt>
      <trkpt lat="45.69887" lon="4.94255">
        <ele>273.05228</ele>
        <time>2012-04-07T14:23:25Z</time>
      </trkpt>
      <trkpt lat="45.69868" lon="4.94256">
        <ele>272.9824</ele>
        <time>2012-04-07T14:23:40Z</time>
      </trkpt>
      <trkpt lat="45.69847" lon="4.94255">
        <ele>270.21307</ele>
        <time>2012-04-07T14:23:56Z</time>
      </trkpt>
      <trkpt lat="45.6983" lon="4.94243">
        <ele>262.69086</ele>
        <time>2012-04-07T14:24:11Z</time>
      </trkpt>
      <trkpt lat="45.69812" lon="4.94239">
        <ele>251.31393</ele>
        <time>2012-04-07T14:24:25Z</time>
      </trkpt>
      <trkpt lat="45.69794" lon="4.94233">
        <ele>252.31938</ele>
        <time>2012-04-07T14:24:37Z</time>
      </trkpt>
      <trkpt lat="45.69777" lon="4.94225">
        <ele>250.7864</ele>
        <time>2012-04-07T14:24:52Z</time>
      </trkpt>
      <trkpt lat="45.69759" lon="4.9422">
        <ele>249.24141</ele>
        <time>2012-04-07T14:25:04Z</time>
      </trkpt>
      <trkpt lat="45.69747" lon="4.94238">
        <ele>247.10278</ele>
        <time>2012-04-07T14:25:17Z</time>
      </trkpt>
      <trkpt lat="45.69741" lon="4.94263">
        <ele>247.97108</ele>
        <time>2012-04-07T14:25:31Z</time>
      </trkpt>
      <trkpt lat="45.69743" lon="4.94289">
        <ele>249.94426</ele>
        <time>2012-04-07T14:25:46Z</time>
      </trkpt>
      <trkpt lat="45.69743" lon="4.94315">
        <ele>253.8024</ele>
        <time>2012-04-07T14:26:00Z</time>
      </trkpt>
      <trkpt lat="45.69736" lon="4.94339">
        <ele>257.54376</ele>
        <time>2012-04-07T14:26:13Z</time>
      </trkpt>
      <trkpt lat="45.69744" lon="4.94365">
        <ele>261.98087</ele>
        <time>2012-04-07T14:26:27Z</time>
      </trkpt>
      <trkpt lat="45.69751" lon="4.94389">
        <ele>260.19547</ele>
        <time>2012-04-07T14:26:42Z</time>
      </trkpt>
      <trkpt lat="45.69748" lon="4.94416">
        <ele>259.4143</ele>
        <time>2012-04-07T14:26:55Z</time>
      </trkpt>
      <trkpt lat="45.69743" lon="4.94441">
        <ele>270.25198</ele>
        <time>2012-04-07T14:27:13Z</time>
      </trkpt>
      <trkpt lat="45.69731" lon="4.9446">
        <ele>284.44058</ele>
        <time>2012-04-07T14:27:28Z</time>
      </trkpt>
      <trkpt lat="45.6973" lon="4.94487">
        <ele>288.62677</ele>
        <time>2012-04-07T14:27:40Z</time>
      </trkpt>
      <trkpt lat="45.69732" lon="4.94512">
        <ele>291.0935</ele>
        <time>2012-04-07T14:27:52Z</time>
      </trkpt>
      <trkpt lat="45.69729" lon="4.94539">
        <ele>291.8827</ele>
        <time>2012-04-07T14:28:05Z</time>
      </trkpt>
      <trkpt lat="45.69731" lon="4.94566">
        <ele>286.3428</ele>
        <time>2012-04-07T14:28:16Z</time>
      </trkpt>
      <trkpt lat="45.69735" lon="4.94593">
        <ele>288.87766</ele>
        <time>2012-04-07T14:28:30Z</time>
      </trkpt>
      <trkpt lat="45.69733" lon="4.9462">
        <ele>289.33655</ele>
        <time>2012-04-07T14:28:44Z</time>
      </trkpt>
      <trkpt lat="45.69734" lon="4.94646">
        <ele>285.42526</ele>
        <time>2012-04-07T14:28:55Z</time>
      </trkpt>
      <trkpt lat="45.69734" lon="4.94674">
        <ele>291.212</ele>
        <time>2012-04-07T14:29:11Z</time>
      </trkpt>
      <trkpt lat="45.69732" lon="4.947">
        <ele>287.36697</ele>
        <time>2012-04-07T14:29:26Z</time>
      </trkpt>
      <trkpt lat="45.69737" lon="4.94725">
        <ele>279.29544</ele>
        <time>2012-04-07T14:29:35Z</time>
      </trkpt>
      <trkpt lat="45.69743" lon="4.9475">
        <ele>275.98856</ele>
        <time>2012-04-07T14:29:48Z</time>
      </trkpt>
      <trkpt lat="45.69738" lon="4.94776">
        <ele>282.4507</ele>
        <time>2012-04-07T14:30:08Z</time>
      </trkpt>
      <trkpt lat="45.6974" lon="4.94803">
        <ele>282.0631</ele>
        <time>2012-04-07T14:30:21Z</time>
      </trkpt>
      <trkpt lat="45.6974" lon="4.9483">
        <ele>277.39417</ele>
        <time>2012-04-07T14:30:32Z</time>
      </trkpt>
      <trkpt lat="45.69741" lon="4.94857">
        <ele>272.78372</ele>
        <time>2012-04-07T14:30:45Z</time>
      </trkpt>
      <trkpt lat="45.69742" lon="4.94884">
        <ele>269.05762</ele>
        <time>2012-04-07T14:30:58Z</time>
      </trkpt>
      <trkpt lat="45.69743" lon="4.9491">
        <ele>267.20093</ele>
        <time>2012-04-07T14:31:10Z</time>
      </trkpt>
      <trkpt lat="45.69744" lon="4.94937">
        <ele>265.51218</ele>
        <time>2012-04-07T14:31:24Z</time>
      </trkpt>
      <trkpt lat="45.69748" lon="4.94963">
        <ele>265.10806</ele>
        <time>2012-04-07T14:31:37Z</time>
      </trkpt>
      <trkpt lat="45.69752" lon="4.94989">
        <ele>265.86127</ele>
        <time>2012-04-07T14:31:51Z</time>
      </trkpt>
      <trkpt lat="45.69758" lon="4.95014">
        <ele>269.37906</ele>
        <time>2012-04-07T14:32:05Z</time>
      </trkpt>
      <trkpt lat="45.69761" lon="4.9504">
        <ele>269.67947</ele>
        <time>2012-04-07T14:32:18Z</time>
      </trkpt>
      <trkpt lat="45.69764" lon="4.95067">
        <ele>271.76752</ele>
        <time>2012-04-07T14:32:32Z</time>
      </trkpt>
      <trkpt lat="45.69766" lon="4.95094">
        <ele>272.95123</ele>
        <time>2012-04-07T14:32:45Z</time>
      </trkpt>
      <trkpt lat="45.69769" lon="4.9512">
        <ele>269.98264</ele>
        <time>2012-04-07T14:32:59Z</time>
      </trkpt>
      <trkpt lat="45.69768" lon="4.95146">
        <ele>270.87357</ele>
        <time>2012-04-07T14:33:13Z</time>
      </trkpt>
      <trkpt lat="45.6977" lon="4.95173">
        <ele>271.4998</ele>
        <time>2012-04-07T14:33:27Z</time>
      </trkpt>
      <trkpt lat="45.69771" lon="4.95199">
        <ele>268.3943</ele>
        <time>2012-04-07T14:33:40Z</time>
      </trkpt>
      <trkpt lat="45.69769" lon="4.95225">
        <ele>269.64868</ele>
        <time>2012-04-07T14:33:53Z</time>
      </trkpt>
      <trkpt lat="45.69769" lon="4.95253">
        <ele>269.7306</ele>
        <time>2012-04-07T14:34:04Z</time>
      </trkpt>
      <trkpt lat="45.69769" lon="4.95279">
        <ele>268.28674</ele>
        <time>2012-04-07T14:34:17Z</time>
      </trkpt>
      <trkpt lat="45.69765" lon="4.95305">
        <ele>272.65555</ele>
        <time>2012-04-07T14:34:33Z</time>
      </trkpt>
      <trkpt lat="45.69761" lon="4.95331">
        <ele>272.69403</ele>
        <time>2012-04-07T14:34:45Z</time>
      </trkpt>
      <trkpt lat="45.69757" lon="4.95356">
        <ele>272.82333</ele>
        <time>2012-04-07T14:35:00Z</time>
      </trkpt>
      <trkpt lat="45.69751" lon="4.95384">
        <ele>274.6701</ele>
        <time>2012-04-07T14:35:13Z</time>
      </trkpt>
      <trkpt lat="45.69747" lon="4.95409">
        <ele>275.66373</ele>
        <time>2012-04-07T14:35:27Z</time>
      </trkpt>
      <trkpt lat="45.69738" lon="4.95434">
        <ele>280.30222</ele>
        <time>2012-04-07T14:35:42Z</time>
      </trkpt>
      <trkpt lat="45.69733" lon="4.9546">
        <ele>289.8953</ele>
        <time>2012-04-07T14:35:58Z</time>
      </trkpt>
      <trkpt lat="45.6973" lon="4.95487">
        <ele>289.13016</ele>
        <time>2012-04-07T14:36:10Z</time>
      </trkpt>
      <trkpt lat="45.69727" lon="4.95513">
        <ele>287.7446</ele>
        <time>2012-04-07T14:36:22Z</time>
      </trkpt>
      <trkpt lat="45.69726" lon="4.95539">
        <ele>278.70367</ele>
        <time>2012-04-07T14:36:34Z</time>
      </trkpt>
      <trkpt lat="45.69724" lon="4.95565">
        <ele>273.99005</ele>
        <time>2012-04-07T14:36:45Z</time>
      </trkpt>
      <trkpt lat="45.69716" lon="4.9559">
        <ele>272.33154</ele>
        <time>2012-04-07T14:36:59Z</time>
      </trkpt>
      <trkpt lat="45.69712" lon="4.95615">
        <ele>275.02844</ele>
        <time>2012-04-07T14:37:13Z</time>
      </trkpt>
      <trkpt lat="45.69709" lon="4.95642">
        <ele>288.83377</ele>
        <time>2012-04-07T14:37:28Z</time>
      </trkpt>
      <trkpt lat="45.69701" lon="4.95668">
        <ele>287.04404</ele>
        <time>2012-04-07T14:37:41Z</time>
      </trkpt>
      <trkpt lat="45.69689" lon="4.95688">
        <ele>282.68277</ele>
        <time>2012-04-07T14:37:56Z</time>
      </trkpt>
      <trkpt lat="45.69672" lon="4.957">
        <ele>281.60095</ele>
        <time>2012-04-07T14:38:06Z</time>
      </trkpt>
      <trkpt lat="45.69654" lon="4.95706">
        <ele>280.71698</ele>
        <time>2012-04-07T14:38:17Z</time>
      </trkpt>
      <trkpt lat="45.69636" lon="4.95708">
        <ele>280.46777</ele>
        <time>2012-04-07T14:38:28Z</time>
      </trkpt>
      <trkpt lat="45.69617" lon="4.9571">
        <ele>276.11832</ele>
        <time>2012-04-07T14:38:41Z</time>
      </trkpt>
      <trkpt lat="45.69599" lon="4.95714">
        <ele>273.6818</ele>
        <time>2012-04-07T14:38:51Z</time>
      </trkpt>
      <trkpt lat="45.6958" lon="4.95708">
        <ele>271.80875</ele>
        <time>2012-04-07T14:39:06Z</time>
      </trkpt>
      <trkpt lat="45.69561" lon="4.95712">
        <ele>268.4952</ele>
        <time>2012-04-07T14:39:19Z</time>
      </trkpt>
      <trkpt lat="45.69545" lon="4.95725">
        <ele>270.7552</ele>
        <time>2012-04-07T14:39:34Z</time>
      </trkpt>
      <trkpt lat="45.69537" lon="4.95749">
        <ele>272.12262</ele>
        <time>2012-04-07T14:39:50Z</time>
      </trkpt>
      <trkpt lat="45.69535" lon="4.95776">
        <ele>270.95193</ele>
        <time>2012-04-07T14:40:02Z</time>
      </trkpt>
      <trkpt lat="45.69533" lon="4.95803">
        <ele>268.60944</ele>
        <time>2012-04-07T14:40:17Z</time>
      </trkpt>
      <trkpt lat="45.69531" lon="4.95829">
        <ele>265.1329</ele>
        <time>2012-04-07T14:40:29Z</time>
      </trkpt>
      <trkpt lat="45.69528" lon="4.95856">
        <ele>268.16635</ele>
        <time>2012-04-07T14:40:43Z</time>
      </trkpt>
      <trkpt lat="45.69526" lon="4.95883">
        <ele>271.8797</ele>
        <time>2012-04-07T14:40:58Z</time>
      </trkpt>
      <trkpt lat="45.69524" lon="4.95909">
        <ele>273.7126</ele>
        <time>2012-04-07T14:41:09Z</time>
      </trkpt>
      <trkpt lat="45.69524" lon="4.95935">
        <ele>271.17752</ele>
        <time>2012-04-07T14:41:20Z</time>
      </trkpt>
      <trkpt lat="45.6952" lon="4.9596">
        <ele>277.10355</ele>
        <time>2012-04-07T14:41:35Z</time>
      </trkpt>
      <trkpt lat="45.69516" lon="4.95986">
        <ele>289.21808</ele>
        <time>2012-04-07T14:41:51Z</time>
      </trkpt>
      <trkpt lat="45.69514" lon="4.96011">
        <ele>290.68085</ele>
        <time>2012-04-07T14:42:02Z</time>
      </trkpt>
      <trkpt lat="45.69514" lon="4.96038">
        <ele>289.72617</ele>
        <time>2012-04-07T14:42:14Z</time>
      </trkpt>
      <trkpt lat="45.69514" lon="4.96064">
        <ele>287.51392</ele>
        <time>2012-04-07T14:42:25Z</time>
      </trkpt>
      <trkpt lat="45.69514" lon="4.96091">
        <ele>286.65237</ele>
        <time>2012-04-07T14:42:38Z</time>
      </trkpt>
      <trkpt lat="45.69511" lon="4.96117">
        <ele>284.55878</ele>
        <time>2012-04-07T14:42:49Z</time>
      </trkpt>
      <trkpt lat="45.69509" lon="4.96143">
        <ele>289.9703</ele>
        <time>2012-04-07T14:43:04Z</time>
      </trkpt>
      <trkpt lat="45.69507" lon="4.9617">
        <ele>286.3855</ele>
        <time>2012-04-07T14:43:15Z</time>
      </trkpt>
      <trkpt lat="45.69504" lon="4.96195">
        <ele>289.50198</ele>
        <time>2012-04-07T14:43:28Z</time>
      </trkpt>
      <trkpt lat="45.695" lon="4.96222">
        <ele>292.45532</ele>
        <time>2012-04-07T14:43:42Z</time>
      </trkpt>
      <trkpt lat="45.69496" lon="4.96249">
        <ele>289.0721</ele>
        <time>2012-04-07T14:43:53Z</time>
      </trkpt>
      <trkpt lat="45.6949" lon="4.96276">
        <ele>288.19684</ele>
        <time>2012-04-07T14:44:09Z</time>
      </trkpt>
      <trkpt lat="45.69484" lon="4.96303">
        <ele>290.21436</ele>
        <time>2012-04-07T14:44:24Z</time>
      </trkpt>
      <trkpt lat="45.6948" lon="4.96331">
        <ele>289.81766</ele>
        <time>2012-04-07T14:44:35Z</time>
      </trkpt>
      <trkpt lat="45.69478" lon="4.96357">
        <ele>290.38373</ele>
        <time>2012-04-07T14:44:50Z</time>
      </trkpt>
      <trkpt lat="45.6947" lon="4.9638">
        <ele>290.29633</ele>
        <time>2012-04-07T14:45:03Z</time>
      </trkpt>
      <trkpt lat="45.69465" lon="4.96407">
        <ele>291.0729</ele>
        <time>2012-04-07T14:45:18Z</time>
      </trkpt>
      <trkpt lat="45.69461" lon="4.96433">
        <ele>290.4131</ele>
        <time>2012-04-07T14:45:32Z</time>
      </trkpt>
      <trkpt lat="45.69457" lon="4.9646">
        <ele>289.60135</ele>
        <time>2012-04-07T14:45:45Z</time>
      </trkpt>
      <trkpt lat="45.69458" lon="4.96487">
        <ele>298.51468</ele>
        <time>2012-04-07T14:46:02Z</time>
      </trkpt>
      <trkpt lat="45.69443" lon="4.96501">
        <ele>299.64685</ele>
        <time>2012-04-07T14:46:20Z</time>
      </trkpt>
      <trkpt lat="45.69433" lon="4.9648">
        <ele>306.9342</ele>
        <time>2012-04-07T14:46:37Z</time>
      </trkpt>
      <trkpt lat="45.69419" lon="4.96462">
        <ele>306.66525</ele>
        <time>2012-04-07T14:46:50Z</time>
      </trkpt>
      <trkpt lat="45.69401" lon="4.96449">
        <ele>306.8689</ele>
        <time>2012-04-07T14:47:01Z</time>
      </trkpt>
      <trkpt lat="45.69384" lon="4.96436">
        <ele>307.791</ele>
        <time>2012-04-07T14:47:19Z</time>
      </trkpt>
      <trkpt lat="45.69364" lon="4.9644">
        <ele>305.17725</ele>
        <time>2012-04-07T14:47:28Z</time>
      </trkpt>
      <trkpt lat="45.69347" lon="4.96451">
        <ele>299.81995</ele>
        <time>2012-04-07T14:47:39Z</time>
      </trkpt>
      <trkpt lat="45.69335" lon="4.96471">
        <ele>296.1913</ele>
        <time>2012-04-07T14:47:52Z</time>
      </trkpt>
      <trkpt lat="45.69324" lon="4.96495">
        <ele>292.05597</ele>
        <time>2012-04-07T14:48:05Z</time>
      </trkpt>
      <trkpt lat="45.69322" lon="4.96525">
        <ele>292.77704</ele>
        <time>2012-04-07T14:48:20Z</time>
      </trkpt>
      <trkpt lat="45.69322" lon="4.96551">
        <ele>289.2861</ele>
        <time>2012-04-07T14:48:31Z</time>
      </trkpt>
      <trkpt lat="45.69322" lon="4.96577">
        <ele>295.81277</ele>
        <time>2012-04-07T14:48:47Z</time>
      </trkpt>
      <trkpt lat="45.69316" lon="4.96603">
        <ele>302.74002</ele>
        <time>2012-04-07T14:49:03Z</time>
      </trkpt>
      <trkpt lat="45.69307" lon="4.96628">
        <ele>301.52356</ele>
        <time>2012-04-07T14:49:13Z</time>
      </trkpt>
      <trkpt lat="45.69301" lon="4.96654">
        <ele>292.92007</ele>
        <time>2012-04-07T14:49:23Z</time>
      </trkpt>
      <trkpt lat="45.69307" lon="4.9668">
        <ele>283.96616</ele>
        <time>2012-04-07T14:49:34Z</time>
      </trkpt>
      <trkpt lat="45.6932" lon="4.96697">
        <ele>283.01498</ele>
        <time>2012-04-07T14:49:48Z</time>
      </trkpt>
      <trkpt lat="45.69331" lon="4.96718">
        <ele>283.5438</ele>
        <time>2012-04-07T14:50:02Z</time>
      </trkpt>
      <trkpt lat="45.69332" lon="4.96744">
        <ele>299.29865</ele>
        <time>2012-04-07T14:50:21Z</time>
      </trkpt>
      <trkpt lat="45.69341" lon="4.96767">
        <ele>301.45645</ele>
        <time>2012-04-07T14:50:30Z</time>
      </trkpt>
      <trkpt lat="45.69347" lon="4.96791">
        <ele>294.92456</ele>
        <time>2012-04-07T14:50:38Z</time>
      </trkpt>
      <trkpt lat="45.69361" lon="4.9681">
        <ele>290.78506</ele>
        <time>2012-04-07T14:50:51Z</time>
      </trkpt>
      <trkpt lat="45.69377" lon="4.96828">
        <ele>291.06097</ele>
        <time>2012-04-07T14:51:04Z</time>
      </trkpt>
      <trkpt lat="45.69392" lon="4.96842">
        <ele>285.84332</ele>
        <time>2012-04-07T14:51:15Z</time>
      </trkpt>
      <trkpt lat="45.69409" lon="4.96854">
        <ele>284.90543</ele>
        <time>2012-04-07T14:51:27Z</time>
      </trkpt>
      <trkpt lat="45.69426" lon="4.96866">
        <ele>283.24277</ele>
        <time>2012-04-07T14:51:39Z</time>
      </trkpt>
      <trkpt lat="45.6944" lon="4.96883">
        <ele>281.71158</ele>
        <time>2012-04-07T14:51:50Z</time>
      </trkpt>
      <trkpt lat="45.69457" lon="4.96889">
        <ele>283.43356</ele>
        <time>2012-04-07T14:52:04Z</time>
      </trkpt>
      <trkpt lat="45.69476" lon="4.96889">
        <ele>286.6328</ele>
        <time>2012-04-07T14:52:18Z</time>
      </trkpt>
      <trkpt lat="45.69494" lon="4.96888">
        <ele>289.01477</ele>
        <time>2012-04-07T14:52:34Z</time>
      </trkpt>
      <trkpt lat="45.69512" lon="4.9689">
        <ele>288.9647</ele>
        <time>2012-04-07T14:52:47Z</time>
      </trkpt>
      <trkpt lat="45.69527" lon="4.96904">
        <ele>288.9085</ele>
        <time>2012-04-07T14:53:00Z</time>
      </trkpt>
      <trkpt lat="45.69544" lon="4.96917">
        <ele>287.5815</ele>
        <time>2012-04-07T14:53:12Z</time>
      </trkpt>
      <trkpt lat="45.69562" lon="4.96917">
        <ele>291.68155</ele>
        <time>2012-04-07T14:53:29Z</time>
      </trkpt>
      <trkpt lat="45.69574" lon="4.96895">
        <ele>279.51752</ele>
        <time>2012-04-07T14:53:37Z</time>
      </trkpt>
      <trkpt lat="45.69582" lon="4.9687">
        <ele>284.6247</ele>
        <time>2012-04-07T14:53:57Z</time>
      </trkpt>
      <trkpt lat="45.69575" lon="4.96842">
        <ele>290.31305</ele>
        <time>2012-04-07T14:54:09Z</time>
      </trkpt>
      <trkpt lat="45.69581" lon="4.96818">
        <ele>291.95953</ele>
        <time>2012-04-07T14:54:17Z</time>
      </trkpt>
      <trkpt lat="45.69587" lon="4.96792">
        <ele>291.73172</ele>
        <time>2012-04-07T14:54:33Z</time>
      </trkpt>
      <trkpt lat="45.696" lon="4.96771">
        <ele>294.12878</ele>
        <time>2012-04-07T14:54:43Z</time>
      </trkpt>
      <trkpt lat="45.69608" lon="4.96747">
        <ele>299.77518</ele>
        <time>2012-04-07T14:54:57Z</time>
      </trkpt>
      <trkpt lat="45.69617" lon="4.96723">
        <ele>303.43497</ele>
        <time>2012-04-07T14:55:09Z</time>
      </trkpt>
      <trkpt lat="45.69615" lon="4.96697">
        <ele>299.79337</ele>
        <time>2012-04-07T14:55:18Z</time>
      </trkpt>
      <trkpt lat="45.69605" lon="4.96675">
        <ele>302.34015</ele>
        <time>2012-04-07T14:55:31Z</time>
      </trkpt>
      <trkpt lat="45.69598" lon="4.96651">
        <ele>301.77792</ele>
        <time>2012-04-07T14:55:43Z</time>
      </trkpt>
      <trkpt lat="45.69588" lon="4.9663">
        <ele>301.25037</ele>
        <time>2012-04-07T14:55:54Z</time>
      </trkpt>
      <trkpt lat="45.69573" lon="4.96614">
        <ele>301.88336</ele>
        <time>2012-04-07T14:56:06Z</time>
      </trkpt>
      <trkpt lat="45.69565" lon="4.9659">
        <ele>302.38947</ele>
        <time>2012-04-07T14:56:21Z</time>
      </trkpt>
      <trkpt lat="45.69558" lon="4.96565">
        <ele>304.04706</ele>
        <time>2012-04-07T14:56:34Z</time>
      </trkpt>
      <trkpt lat="45.69555" lon="4.96539">
        <ele>303.45947</ele>
        <time>2012-04-07T14:56:46Z</time>
      </trkpt>
      <trkpt lat="45.69558" lon="4.96513">
        <ele>300.4838</ele>
        <time>2012-04-07T14:57:00Z</time>
      </trkpt>
      <trkpt lat="45.69557" lon="4.96487">
        <ele>301.6486</ele>
        <time>2012-04-07T14:57:10Z</time>
      </trkpt>
      <trkpt lat="45.69549" lon="4.96464">
        <ele>299.4338</ele>
        <time>2012-04-07T14:57:22Z</time>
      </trkpt>
      <trkpt lat="45.69545" lon="4.96438">
        <ele>297.9502</ele>
        <time>2012-04-07T14:57:33Z</time>
      </trkpt>
      <trkpt lat="45.69548" lon="4.96411">
        <ele>296.8761</ele>
        <time>2012-04-07T14:57:43Z</time>
      </trkpt>
      <trkpt lat="45.69544" lon="4.96384">
        <ele>296.20175</ele>
        <time>2012-04-07T14:57:55Z</time>
      </trkpt>
      <trkpt lat="45.69539" lon="4.96359">
        <ele>297.279</ele>
        <time>2012-04-07T14:58:08Z</time>
      </trkpt>
      <trkpt lat="45.69536" lon="4.96332">
        <ele>302.73294</ele>
        <time>2012-04-07T14:58:23Z</time>
      </trkpt>
      <trkpt lat="45.69534" lon="4.96305">
        <ele>304.19418</ele>
        <time>2012-04-07T14:58:38Z</time>
      </trkpt>
      <trkpt lat="45.69524" lon="4.96282">
        <ele>301.03635</ele>
        <time>2012-04-07T14:58:48Z</time>
      </trkpt>
      <trkpt lat="45.69517" lon="4.96258">
        <ele>296.83777</ele>
        <time>2012-04-07T14:58:59Z</time>
      </trkpt>
      <trkpt lat="45.69516" lon="4.96232">
        <ele>296.8349</ele>
        <time>2012-04-07T14:59:13Z</time>
      </trkpt>
      <trkpt lat="45.69512" lon="4.96207">
        <ele>295.44962</ele>
        <time>2012-04-07T14:59:26Z</time>
      </trkpt>
      <trkpt lat="45.6951" lon="4.9618">
        <ele>290.9929</ele>
        <time>2012-04-07T14:59:38Z</time>
      </trkpt>
      <trkpt lat="45.69512" lon="4.96153">
        <ele>284.16467</ele>
        <time>2012-04-07T14:59:51Z</time>
      </trkpt>
      <trkpt lat="45.69515" lon="4.96127">
        <ele>275.20792</ele>
        <time>2012-04-07T15:00:04Z</time>
      </trkpt>
      <trkpt lat="45.69517" lon="4.961">
        <ele>272.36612</ele>
        <time>2012-04-07T15:00:17Z</time>
      </trkpt>
      <trkpt lat="45.69519" lon="4.96074">
        <ele>270.77103</ele>
        <time>2012-04-07T15:00:29Z</time>
      </trkpt>
      <trkpt lat="45.69519" lon="4.96048">
        <ele>270.5316</ele>
        <time>2012-04-07T15:00:40Z</time>
      </trkpt>
      <trkpt lat="45.69522" lon="4.96022">
        <ele>271.27356</ele>
        <time>2012-04-07T15:00:52Z</time>
      </trkpt>
      <trkpt lat="45.69523" lon="4.95995">
        <ele>270.2869</ele>
        <time>2012-04-07T15:01:05Z</time>
      </trkpt>
      <trkpt lat="45.69526" lon="4.95969">
        <ele>267.78732</ele>
        <time>2012-04-07T15:01:18Z</time>
      </trkpt>
      <trkpt lat="45.69527" lon="4.95942">
        <ele>266.8377</ele>
        <time>2012-04-07T15:01:31Z</time>
      </trkpt>
      <trkpt lat="45.69531" lon="4.95917">
        <ele>269.92444</ele>
        <time>2012-04-07T15:01:42Z</time>
      </trkpt>
      <trkpt lat="45.69529" lon="4.95891">
        <ele>272.7394</ele>
        <time>2012-04-07T15:01:55Z</time>
      </trkpt>
      <trkpt lat="45.69535" lon="4.95865">
        <ele>270.83014</ele>
        <time>2012-04-07T15:02:07Z</time>
      </trkpt>
      <trkpt lat="45.69538" lon="4.95839">
        <ele>270.2405</ele>
        <time>2012-04-07T15:02:18Z</time>
      </trkpt>
      <trkpt lat="45.69538" lon="4.95813">
        <ele>270.18158</ele>
        <time>2012-04-07T15:02:31Z</time>
      </trkpt>
      <trkpt lat="45.69538" lon="4.95787">
        <ele>270.44516</ele>
        <time>2012-04-07T15:02:42Z</time>
      </trkpt>
      <trkpt lat="45.69541" lon="4.95761">
        <ele>273.3772</ele>
        <time>2012-04-07T15:02:53Z</time>
      </trkpt>
      <trkpt lat="45.69543" lon="4.95735">
        <ele>270.57828</ele>
        <time>2012-04-07T15:03:08Z</time>
      </trkpt>
      <trkpt lat="45.69561" lon="4.95727">
        <ele>270.02548</ele>
        <time>2012-04-07T15:03:23Z</time>
      </trkpt>
      <trkpt lat="45.6958" lon="4.95727">
        <ele>270.49557</ele>
        <time>2012-04-07T15:03:36Z</time>
      </trkpt>
      <trkpt lat="45.696" lon="4.95723">
        <ele>271.47427</ele>
        <time>2012-04-07T15:03:49Z</time>
      </trkpt>
      <trkpt lat="45.6962" lon="4.95722">
        <ele>270.93643</ele>
        <time>2012-04-07T15:04:02Z</time>
      </trkpt>
      <trkpt lat="45.69639" lon="4.95721">
        <ele>273.697</ele>
        <time>2012-04-07T15:04:17Z</time>
      </trkpt>
      <trkpt lat="45.69657" lon="4.95714">
        <ele>273.81046</ele>
        <time>2012-04-07T15:04:29Z</time>
      </trkpt>
      <trkpt lat="45.69675" lon="4.95712">
        <ele>274.76575</ele>
        <time>2012-04-07T15:04:42Z</time>
      </trkpt>
      <trkpt lat="45.69691" lon="4.95727">
        <ele>271.1476</ele>
        <time>2012-04-07T15:04:56Z</time>
      </trkpt>
      <trkpt lat="45.69707" lon="4.95715">
        <ele>269.48056</ele>
        <time>2012-04-07T15:05:06Z</time>
      </trkpt>
      <trkpt lat="45.69726" lon="4.95713">
        <ele>270.47888</ele>
        <time>2012-04-07T15:05:16Z</time>
      </trkpt>
      <trkpt lat="45.69745" lon="4.95714">
        <ele>270.89575</ele>
        <time>2012-04-07T15:05:28Z</time>
      </trkpt>
      <trkpt lat="45.69764" lon="4.9571">
        <ele>272.70157</ele>
        <time>2012-04-07T15:05:42Z</time>
      </trkpt>
      <trkpt lat="45.69782" lon="4.95707">
        <ele>273.8505</ele>
        <time>2012-04-07T15:05:57Z</time>
      </trkpt>
      <trkpt lat="45.69799" lon="4.95696">
        <ele>270.34726</ele>
        <time>2012-04-07T15:06:09Z</time>
      </trkpt>
      <trkpt lat="45.69815" lon="4.95681">
        <ele>273.65475</ele>
        <time>2012-04-07T15:06:28Z</time>
      </trkpt>
      <trkpt lat="45.69827" lon="4.95659">
        <ele>268.77338</ele>
        <time>2012-04-07T15:06:44Z</time>
      </trkpt>
      <trkpt lat="45.69835" lon="4.95636">
        <ele>273.10815</ele>
        <time>2012-04-07T15:06:53Z</time>
      </trkpt>
      <trkpt lat="45.69843" lon="4.95611">
        <ele>277.5957</ele>
        <time>2012-04-07T15:07:05Z</time>
      </trkpt>
      <trkpt lat="45.69843" lon="4.95584">
        <ele>281.04596</ele>
        <time>2012-04-07T15:07:19Z</time>
      </trkpt>
      <trkpt lat="45.69847" lon="4.95557">
        <ele>278.09158</ele>
        <time>2012-04-07T15:07:28Z</time>
      </trkpt>
      <trkpt lat="45.69847" lon="4.9553">
        <ele>275.70996</ele>
        <time>2012-04-07T15:07:41Z</time>
      </trkpt>
      <trkpt lat="45.69848" lon="4.95504">
        <ele>277.2458</ele>
        <time>2012-04-07T15:07:55Z</time>
      </trkpt>
      <trkpt lat="45.69855" lon="4.95478">
        <ele>277.63046</ele>
        <time>2012-04-07T15:08:06Z</time>
      </trkpt>
      <trkpt lat="45.69855" lon="4.95451">
        <ele>280.4133</ele>
        <time>2012-04-07T15:08:21Z</time>
      </trkpt>
      <trkpt lat="45.69857" lon="4.95424">
        <ele>278.00656</ele>
        <time>2012-04-07T15:08:34Z</time>
      </trkpt>
      <trkpt lat="45.69855" lon="4.95399">
        <ele>279.1752</ele>
        <time>2012-04-07T15:08:45Z</time>
      </trkpt>
      <trkpt lat="45.69855" lon="4.95372">
        <ele>281.87534</ele>
        <time>2012-04-07T15:08:57Z</time>
      </trkpt>
      <trkpt lat="45.69862" lon="4.95348">
        <ele>278.4423</ele>
        <time>2012-04-07T15:09:08Z</time>
      </trkpt>
      <trkpt lat="45.69864" lon="4.95321">
        <ele>277.0841</ele>
        <time>2012-04-07T15:09:22Z</time>
      </trkpt>
      <trkpt lat="45.69873" lon="4.95293">
        <ele>274.72913</ele>
        <time>2012-04-07T15:09:33Z</time>
      </trkpt>
      <trkpt lat="45.69881" lon="4.9527">
        <ele>271.32272</ele>
        <time>2012-04-07T15:09:47Z</time>
      </trkpt>
      <trkpt lat="45.69884" lon="4.95244">
        <ele>271.90192</ele>
        <time>2012-04-07T15:09:59Z</time>
      </trkpt>
      <trkpt lat="45.6989" lon="4.95219">
        <ele>272.759</ele>
        <time>2012-04-07T15:10:11Z</time>
      </trkpt>
      <trkpt lat="45.69899" lon="4.95196">
        <ele>269.25906</ele>
        <time>2012-04-07T15:10:21Z</time>
      </trkpt>
      <trkpt lat="45.69899" lon="4.95169">
        <ele>269.95703</ele>
        <time>2012-04-07T15:10:37Z</time>
      </trkpt>
      <trkpt lat="45.69897" lon="4.95142">
        <ele>273.22653</ele>
        <time>2012-04-07T15:10:50Z</time>
      </trkpt>
      <trkpt lat="45.69901" lon="4.95115">
        <ele>273.5961</ele>
        <time>2012-04-07T15:11:00Z</time>
      </trkpt>
      <trkpt lat="45.69917" lon="4.95101">
        <ele>269.97797</ele>
        <time>2012-04-07T15:11:11Z</time>
      </trkpt>
      <trkpt lat="45.69934" lon="4.95093">
        <ele>270.2654</ele>
        <time>2012-04-07T15:11:24Z</time>
      </trkpt>
      <trkpt lat="45.69954" lon="4.95094">
        <ele>269.32248</ele>
        <time>2012-04-07T15:11:36Z</time>
      </trkpt>
      <trkpt lat="45.69973" lon="4.95096">
        <ele>267.61496</ele>
        <time>2012-04-07T15:11:48Z</time>
      </trkpt>
      <trkpt lat="45.69991" lon="4.95097">
        <ele>266.2983</ele>
        <time>2012-04-07T15:12:02Z</time>
      </trkpt>
      <trkpt lat="45.70004" lon="4.95118">
        <ele>266.3979</ele>
        <time>2012-04-07T15:12:14Z</time>
      </trkpt>
      <trkpt lat="45.70013" lon="4.95142">
        <ele>270.30142</ele>
        <time>2012-04-07T15:12:28Z</time>
      </trkpt>
      <trkpt lat="45.70026" lon="4.95162">
        <ele>271.8499</ele>
        <time>2012-04-07T15:12:41Z</time>
      </trkpt>
      <trkpt lat="45.70035" lon="4.95185">
        <ele>272.03815</ele>
        <time>2012-04-07T15:12:52Z</time>
      </trkpt>
      <trkpt lat="45.70043" lon="4.95208">
        <ele>272.07285</ele>
        <time>2012-04-07T15:13:05Z</time>
      </trkpt>
      <trkpt lat="45.70057" lon="4.95224">
        <ele>275.8655</ele>
        <time>2012-04-07T15:13:17Z</time>
      </trkpt>
      <trkpt lat="45.70063" lon="4.95249">
        <ele>275.88953</ele>
        <time>2012-04-07T15:13:27Z</time>
      </trkpt>
      <trkpt lat="45.70072" lon="4.95272">
        <ele>276.6877</ele>
        <time>2012-04-07T15:13:41Z</time>
      </trkpt>
      <trkpt lat="45.70082" lon="4.95296">
        <ele>277.78113</ele>
        <time>2012-04-07T15:13:54Z</time>
      </trkpt>
    </trkseg>
  </trk>
</gpx>